Time;durP1;ratioP1;P1;durP2;ratioP2;P2;SDS_P1;SDS_P2;PMS_P1;PMS_P2;Temp;Humidity;BMP_temperature;BMP_pressure;BME280_temperature;BME280_humidity;BME280_pressure;Samples;Min_cycle;Max_cycle;Signal;HPM_P1;HPM_P2
2023/12/11 00:01:43;;;;;;;18.15;2.70;;;;;;;8.69;100.00;99887.66;5006778;28;20029;-89
2023/12/11 00:04:08;;;;;;;15.55;2.60;;;;;;;8.68;100.00;99887.75;5018299;28;20454;-85
2023/12/11 00:06:34;;;;;;;20.85;3.25;;;;;;;8.65;100.00;99883.47;5000913;28;20049;-84
2023/12/11 00:08:59;;;;;;;14.73;3.08;;;;;;;8.62;100.00;99879.25;4999500;28;20041;-85
2023/12/11 00:11:25;;;;;;;15.82;2.30;;;;;;;8.60;100.00;99873.28;5015979;28;20041;-85
2023/12/11 00:13:50;;;;;;;19.17;2.75;;;;;;;8.58;100.00;99874.22;5013689;28;20032;-86
2023/12/11 00:16:17;;;;;;;19.00;3.25;;;;;;;8.55;100.00;99871.72;5001270;28;20527;-85
2023/12/11 00:18:42;;;;;;;15.48;2.70;;;;;;;8.52;100.00;99879.59;5014664;28;20083;-85
2023/12/11 00:21:07;;;;;;;16.83;2.92;;;;;;;8.51;100.00;99881.38;5015371;28;20022;-85
2023/12/11 00:23:33;;;;;;;17.60;2.90;;;;;;;8.50;100.00;99879.66;4997089;28;21290;-85
2023/12/11 00:25:58;;;;;;;19.20;2.83;;;;;;;8.47;100.00;99877.13;5018761;28;20036;-86
2023/12/11 00:28:23;;;;;;;18.35;2.70;;;;;;;8.44;100.00;99879.81;5010590;28;20026;-85
2023/12/11 00:30:49;;;;;;;18.17;2.80;;;;;;;8.40;100.00;99867.84;5018003;28;20033;-86
2023/12/11 00:33:14;;;;;;;16.02;2.58;;;;;;;8.39;100.00;99881.72;5023560;28;20037;-86
2023/12/11 00:35:40;;;;;;;22.20;2.88;;;;;;;8.38;100.00;99880.88;5016459;28;20473;-85
2023/12/11 00:38:05;;;;;;;18.38;2.75;;;;;;;8.37;100.00;99875.75;5024981;28;20056;-85
2023/12/11 00:40:30;;;;;;;21.33;3.28;;;;;;;8.35;100.00;99874.06;5024407;28;20502;-86
2023/12/11 00:42:56;;;;;;;16.95;2.72;;;;;;;8.35;100.00;99871.47;5018438;28;20026;-86
2023/12/11 00:45:21;;;;;;;18.48;2.70;;;;;;;8.31;100.00;99869.84;5021118;28;20429;-85
2023/12/11 00:47:46;;;;;;;22.13;3.22;;;;;;;8.31;100.00;99867.28;5022228;28;20029;-87
2023/12/11 00:50:12;;;;;;;19.27;2.60;;;;;;;8.30;100.00;99873.34;5023216;28;20029;-85
2023/12/11 00:52:37;;;;;;;15.95;2.65;;;;;;;8.29;100.00;99869.06;5022398;28;20036;-85
2023/12/11 00:55:03;;;;;;;22.77;2.90;;;;;;;8.30;100.00;99873.34;5021569;28;20519;-86
2023/12/11 00:57:28;;;;;;;19.42;2.78;;;;;;;8.29;100.00;99871.66;5021053;28;20049;-85
2023/12/11 00:59:54;;;;;;;12.57;2.45;;;;;;;8.28;100.00;99861.34;5009705;28;20079;-85
2023/12/11 01:02:19;;;;;;;21.58;2.55;;;;;;;8.27;100.00;99863.06;5020974;28;20540;-85
2023/12/11 01:04:44;;;;;;;14.50;3.00;;;;;;;8.30;100.00;99870.75;5020981;28;20021;-85
2023/12/11 01:07:10;;;;;;;18.23;2.40;;;;;;;8.34;100.00;99861.13;5001289;28;20120;-85
2023/12/11 01:09:36;;;;;;;16.08;2.80;;;;;;;8.33;100.00;99852.53;5006920;28;20288;-86
2023/12/11 01:12:02;;;;;;;18.80;3.60;;;;;;;8.34;100.00;99854.22;5025574;28;20108;-85
2023/12/11 01:14:27;;;;;;;14.63;2.80;;;;;;;8.35;100.00;99850.72;5024500;28;20026;-85
2023/12/11 01:16:53;;;;;;;21.02;3.47;;;;;;;8.35;100.00;99845.56;5019032;28;20488;-85
2023/12/11 01:19:18;;;;;;;17.83;2.92;;;;;;;8.38;100.00;99843.72;5020039;28;20095;-85
2023/12/11 01:21:45;;;;;;;20.00;2.88;;;;;;;8.38;100.00;99838.53;5025642;28;20093;-86
2023/12/11 01:24:11;;;;;;;20.88;2.67;;;;;;;8.41;100.00;99843.63;4998783;28;20028;-85
2023/12/11 01:26:37;;;;;;;21.73;2.90;;;;;;;8.42;100.00;99829.78;5023097;28;20027;-87
2023/12/11 01:29:02;;;;;;;17.33;2.85;;;;;;;8.43;100.00;99826.28;5027955;28;20044;-85
2023/12/11 01:31:27;;;;;;;21.52;2.72;;;;;;;8.45;100.00;99824.50;5017922;28;20018;-86
2023/12/11 01:33:53;;;;;;;19.85;2.65;;;;;;;8.47;100.00;99843.44;5027440;28;20021;-85
2023/12/11 01:36:18;;;;;;;16.27;2.45;;;;;;;8.49;100.00;99826.13;5013690;28;20029;-86
2023/12/11 01:38:44;;;;;;;22.13;2.67;;;;;;;8.50;100.00;99838.19;4994128;28;20018;-85
2023/12/11 01:41:09;;;;;;;25.60;3.42;;;;;;;8.56;100.00;99825.00;5011970;28;20054;-85
2023/12/11 01:43:35;;;;;;;22.58;3.28;;;;;;;8.58;100.00;99819.78;5006986;28;20482;-85
2023/12/11 01:46:06;;;;;;;17.48;3.22;;;;;;;8.62;100.00;99818.78;5006355;28;20100;-85
2023/12/11 01:48:32;;;;;;;22.02;3.92;;;;;;;8.61;100.00;99815.34;5019881;28;20083;-85
2023/12/11 01:50:57;;;;;;;18.73;2.70;;;;;;;8.62;100.00;99822.22;5004787;28;20033;-85
2023/12/11 01:53:24;;;;;;;20.27;2.80;;;;;;;8.63;100.00;99823.03;5021061;28;20022;-85
2023/12/11 01:55:50;;;;;;;21.25;2.97;;;;;;;8.64;100.00;99804.88;5018896;28;20026;-86
2023/12/11 01:58:17;;;;;;;15.35;2.35;;;;;;;8.68;100.00;99812.53;5023833;28;20086;-85
2023/12/11 02:00:43;;;;;;;21.83;3.15;;;;;;;8.69;100.00;99806.47;5022009;28;20036;-85
2023/12/11 02:03:11;;;;;;;19.33;3.03;;;;;;;8.73;100.00;99800.25;5017700;28;20026;-85
2023/12/11 02:05:37;;;;;;;17.25;3.00;;;;;;;8.74;100.00;99794.16;5027019;28;20049;-85
2023/12/11 02:08:03;;;;;;;20.77;2.58;;;;;;;8.75;100.00;99793.25;5017786;28;20032;-84
2023/12/11 02:10:28;;;;;;;19.23;2.53;;;;;;;8.77;100.00;99789.72;5024694;28;20025;-85
2023/12/11 02:12:54;;;;;;;26.23;3.10;;;;;;;8.80;100.00;99788.75;5025162;28;20037;-82
2023/12/11 02:15:39;;;;;;;14.73;2.90;;;;;;;8.83;100.00;99788.66;5027636;28;20542;-82
2023/12/11 02:18:04;;;;;;;15.85;2.28;;;;;;;8.85;100.00;99798.97;5025744;28;20059;-83
2023/12/11 02:20:30;;;;;;;18.63;2.67;;;;;;;8.87;100.00;99785.06;5022275;28;20041;-83
2023/12/11 02:23:00;;;;;;;19.48;3.03;;;;;;;8.89;100.00;99778.06;5025422;28;20488;-82
2023/12/11 02:25:28;;;;;;;18.02;2.80;;;;;;;8.89;100.00;99770.28;5027085;28;20029;-82
2023/12/11 02:27:53;;;;;;;23.75;2.53;;;;;;;8.94;100.00;99770.97;5027036;28;20044;-83
2023/12/11 02:30:18;;;;;;;16.65;2.55;;;;;;;8.96;100.00;99766.56;5021775;28;20034;-83
2023/12/11 02:32:44;;;;;;;19.17;2.70;;;;;;;8.99;100.00;99762.16;5023183;28;20065;-82
2023/12/11 02:35:09;;;;;;;25.17;3.80;;;;;;;9.00;100.00;99756.09;5024163;28;20036;-83
2023/12/11 02:37:34;;;;;;;17.05;2.53;;;;;;;9.04;100.00;99755.06;5007320;28;20056;-83
2023/12/11 02:40:00;;;;;;;17.63;2.67;;;;;;;9.04;100.00;99760.25;5022011;28;20492;-82
2023/12/11 02:42:25;;;;;;;21.23;2.47;;;;;;;9.05;100.00;99754.16;5021295;28;20075;-83
2023/12/11 02:44:51;;;;;;;22.67;3.00;;;;;;;9.01;100.00;99760.38;5007790;28;20134;-83
2023/12/11 02:47:16;;;;;;;20.63;2.67;;;;;;;9.04;100.00;99749.88;5027852;28;20030;-83
2023/12/11 02:49:41;;;;;;;16.30;2.15;;;;;;;9.04;100.00;99748.13;5006096;28;20037;-83
2023/12/11 02:52:07;;;;;;;16.58;2.60;;;;;;;9.05;100.00;99741.19;5020135;28;20030;-82
2023/12/11 02:54:32;;;;;;;16.77;3.00;;;;;;;9.04;100.00;99732.56;5020214;28;20026;-82
2023/12/11 02:56:57;;;;;;;26.45;2.60;;;;;;;9.05;100.00;99739.44;5025643;28;20442;-82
2023/12/11 02:59:23;;;;;;;15.35;2.47;;;;;;;9.04;100.00;99734.31;5028551;28;20026;-83
2023/12/11 03:01:48;;;;;;;18.52;2.30;;;;;;;9.03;100.00;99727.44;5028092;28;20040;-83
2023/12/11 03:04:13;;;;;;;15.68;2.72;;;;;;;9.02;100.00;99725.75;5018877;28;20038;-82
2023/12/11 03:06:39;;;;;;;17.75;2.40;;;;;;;9.04;100.00;99724.78;5023893;28;20400;-83
2023/12/11 03:09:05;;;;;;;21.42;2.45;;;;;;;9.03;100.00;99715.28;5024721;28;20029;-85
2023/12/11 03:11:30;;;;;;;16.50;2.58;;;;;;;9.03;100.00;99710.09;5011048;28;20042;-86
2023/12/11 03:13:56;;;;;;;17.52;2.55;;;;;;;9.03;100.00;99706.69;5025085;28;20083;-82
2023/12/11 03:16:21;;;;;;;11.73;2.53;;;;;;;9.02;100.00;99705.00;5022623;28;20448;-83
2023/12/11 03:18:46;;;;;;;15.30;2.35;;;;;;;8.94;100.00;99707.88;5031024;28;20033;-85
2023/12/11 03:21:12;;;;;;;15.18;2.55;;;;;;;8.89;100.00;99718.41;5022704;28;20034;-83
2023/12/11 03:23:38;;;;;;;15.20;2.30;;;;;;;8.85;100.00;99711.66;5022785;28;20041;-82
2023/12/11 03:26:03;;;;;;;15.65;2.22;;;;;;;8.83;100.00;99710.84;5016593;28;20029;-83
2023/12/11 03:28:29;;;;;;;13.98;2.10;;;;;;;8.83;100.00;99704.81;5025817;28;20083;-83
2023/12/11 03:30:54;;;;;;;14.20;1.85;;;;;;;8.81;100.00;99695.34;5008533;28;20037;-83
2023/12/11 03:33:19;;;;;;;17.05;2.30;;;;;;;8.79;100.00;99694.56;5023028;28;20415;-83
2023/12/11 03:35:45;;;;;;;17.40;3.40;;;;;;;8.79;100.00;99698.91;5023751;28;20105;-82
2023/12/11 03:38:10;;;;;;;17.10;2.85;;;;;;;8.76;100.00;99688.63;5012975;28;20030;-82
2023/12/11 03:40:36;;;;;;;17.73;2.58;;;;;;;8.73;100.00;99673.19;5026254;28;20079;-83
2023/12/11 03:43:01;;;;;;;21.48;2.17;;;;;;;8.69;100.00;99687.19;5023001;28;20028;-82
2023/12/11 03:45:26;;;;;;;15.30;2.30;;;;;;;8.65;100.00;99686.44;5018350;28;20041;-83
2023/12/11 03:47:52;;;;;;;15.10;2.42;;;;;;;8.63;100.00;99693.41;5027413;28;20026;-83
2023/12/11 03:50:17;;;;;;;14.73;2.13;;;;;;;8.61;100.00;99685.69;5007337;28;20025;-83
2023/12/11 03:52:42;;;;;;;16.70;2.35;;;;;;;8.62;100.00;99677.03;5025908;28;20025;-82
2023/12/11 03:55:08;;;;;;;14.02;2.42;;;;;;;8.61;100.00;99680.53;5006758;28;20056;-83
2023/12/11 03:57:33;;;;;;;13.18;1.90;;;;;;;8.62;100.00;99679.63;5015399;28;20033;-83
2023/12/11 03:59:58;;;;;;;18.80;2.70;;;;;;;8.64;100.00;99674.38;5028209;28;20334;-82
2023/12/11 04:02:24;;;;;;;16.42;2.63;;;;;;;8.62;100.00;99679.63;5022669;28;20024;-82
2023/12/11 04:04:49;;;;;;;12.77;2.40;;;;;;;8.61;100.00;99684.88;5018029;28;20489;-84
2023/12/11 04:07:14;;;;;;;12.50;2.00;;;;;;;8.62;100.00;99679.63;5023658;28;20045;-82
2023/12/11 04:09:40;;;;;;;14.52;2.10;;;;;;;8.61;100.00;99680.53;5023607;28;20532;-83
2023/12/11 04:12:05;;;;;;;13.23;2.50;;;;;;;8.61;100.00;99685.69;5027583;28;20028;-83
2023/12/11 04:14:31;;;;;;;14.88;1.90;;;;;;;8.60;100.00;99671.03;5009308;28;20037;-82
2023/12/11 04:16:56;;;;;;;13.93;1.85;;;;;;;8.63;100.00;99673.53;5024340;28;20017;-83
2023/12/11 04:19:21;;;;;;;12.35;1.98;;;;;;;8.67;100.00;99678.63;5023007;28;20112;-83
2023/12/11 04:21:47;;;;;;;12.55;2.38;;;;;;;8.65;100.00;99673.47;5025847;28;20021;-83
2023/12/11 04:24:12;;;;;;;12.65;2.20;;;;;;;8.66;100.00;99677.75;5021004;28;20042;-83
2023/12/11 04:26:37;;;;;;;16.25;2.17;;;;;;;8.65;100.00;99676.91;5024298;28;20530;-83
2023/12/11 04:29:03;;;;;;;14.88;2.17;;;;;;;8.63;100.00;99673.53;5023616;28;20040;-83
2023/12/11 04:31:28;;;;;;;14.45;2.50;;;;;;;8.70;100.00;99688.88;5007579;28;20112;-83
2023/12/11 04:33:53;;;;;;;15.18;2.05;;;;;;;8.72;100.00;99671.50;5022387;28;20025;-83
2023/12/11 04:36:19;;;;;;;12.38;1.90;;;;;;;8.72;100.00;99682.72;5005810;28;20108;-83
2023/12/11 04:38:44;;;;;;;12.70;1.80;;;;;;;8.72;100.00;99671.50;5021382;28;20025;-83
2023/12/11 04:41:10;;;;;;;11.85;2.00;;;;;;;8.72;100.00;99668.91;5023113;28;20029;-82
2023/12/11 04:43:36;;;;;;;14.50;1.90;;;;;;;8.71;100.00;99644.72;5023624;28;20540;-82
2023/12/11 04:46:01;;;;;;;17.45;2.47;;;;;;;8.72;100.00;99650.75;5023218;28;20105;-82
2023/12/11 04:48:26;;;;;;;15.98;2.35;;;;;;;8.69;100.00;99653.47;5024738;28;20049;-83
2023/12/11 04:50:52;;;;;;;18.23;2.42;;;;;;;8.69;100.00;99656.06;5023462;28;20147;-83
2023/12/11 04:53:17;;;;;;;16.98;2.67;;;;;;;8.65;100.00;99645.81;5028217;28;20029;-82
2023/12/11 04:55:42;;;;;;;17.60;2.47;;;;;;;8.64;100.00;99641.53;5020042;28;20048;-82
2023/12/11 04:58:08;;;;;;;18.25;2.95;;;;;;;8.61;100.00;99628.66;5020625;28;20038;-82
2023/12/11 05:00:33;;;;;;;16.02;2.20;;;;;;;8.58;100.00;99633.13;5005291;28;20029;-82
2023/12/11 05:02:58;;;;;;;11.80;2.22;;;;;;;8.56;100.00;99648.72;5028661;28;20415;-83
2023/12/11 05:05:24;;;;;;;11.27;1.90;;;;;;;8.53;100.00;99651.47;5023283;28;20155;-82
2023/12/11 05:07:49;;;;;;;12.23;2.35;;;;;;;8.52;100.00;99647.16;5024543;28;20025;-82
2023/12/11 05:10:14;;;;;;;16.45;2.13;;;;;;;8.52;100.00;99654.94;5023171;28;20037;-83
2023/12/11 05:12:40;;;;;;;12.75;2.13;;;;;;;8.52;100.00;99649.75;5003492;28;20036;-83
2023/12/11 05:15:06;;;;;;;14.93;2.67;;;;;;;8.51;100.00;99653.25;5020900;28;20037;-82
2023/12/11 05:17:31;;;;;;;19.55;2.40;;;;;;;8.50;100.00;99661.94;5019734;28;21674;-83
2023/12/11 05:19:56;;;;;;;14.73;2.13;;;;;;;8.54;100.00;99657.47;5005729;28;20025;-83
2023/12/11 05:22:22;;;;;;;16.35;1.88;;;;;;;8.57;100.00;99662.53;5018858;28;20032;-82
2023/12/11 05:24:48;;;;;;;13.82;2.13;;;;;;;8.59;100.00;99665.94;5025314;28;20048;-82
2023/12/11 05:27:13;;;;;;;16.70;2.40;;;;;;;8.58;100.00;99656.47;5016127;28;20493;-82
2023/12/11 05:29:39;;;;;;;16.00;2.20;;;;;;;8.55;100.00;99659.16;5021461;28;20108;-82
2023/12/11 05:32:04;;;;;;;13.52;2.25;;;;;;;8.58;100.00;99656.47;5021360;28;20156;-83
2023/12/11 05:34:30;;;;;;;15.68;2.03;;;;;;;8.57;100.00;99665.97;5028396;28;20492;-83
2023/12/11 05:36:55;;;;;;;11.15;2.17;;;;;;;8.54;100.00;99655.72;5018452;28;20087;-83
2023/12/11 05:39:20;;;;;;;16.35;2.47;;;;;;;8.52;100.00;99649.75;5021377;28;20037;-83
2023/12/11 05:41:46;;;;;;;13.73;2.80;;;;;;;8.48;100.00;99653.34;5019953;28;20033;-83
2023/12/11 05:44:11;;;;;;;13.20;2.33;;;;;;;8.47;100.00;99646.44;5021800;28;20037;-83
2023/12/11 05:46:36;;;;;;;17.30;2.03;;;;;;;8.48;100.00;99651.59;5003970;28;20034;-83
2023/12/11 05:49:02;;;;;;;12.38;1.75;;;;;;;8.50;100.00;99651.56;5020561;28;20049;-82
2023/12/11 05:51:28;;;;;;;12.32;2.13;;;;;;;8.50;100.00;99646.38;5029887;28;20034;-82
2023/12/11 05:53:55;;;;;;;14.88;2.08;;;;;;;8.50;100.00;99649.78;5027048;28;20034;-82
2023/12/11 05:56:21;;;;;;;15.77;2.75;;;;;;;8.53;100.00;99656.63;5024808;28;20026;-83
2023/12/11 05:58:46;;;;;;;18.58;2.45;;;;;;;8.56;100.00;99647.91;5022182;28;20503;-82
2023/12/11 06:01:12;;;;;;;13.13;2.35;;;;;;;8.57;100.00;99637.44;5022490;28;20029;-82
2023/12/11 06:03:37;;;;;;;15.88;2.13;;;;;;;8.57;100.00;99637.44;5024377;28;20028;-85
2023/12/11 06:06:03;;;;;;;15.35;2.00;;;;;;;8.56;100.00;99637.53;5030005;28;20569;-85
2023/12/11 06:08:28;;;;;;;15.65;2.38;;;;;;;8.58;100.00;99636.56;5025495;28;20050;-84
2023/12/11 06:10:54;;;;;;;15.18;2.13;;;;;;;8.57;100.00;99636.63;5027305;28;20108;-85
2023/12/11 06:13:19;;;;;;;13.48;2.17;;;;;;;8.59;100.00;99640.84;5023669;28;20052;-84
2023/12/11 06:15:45;;;;;;;15.93;2.70;;;;;;;8.57;100.00;99647.81;5026748;28;20029;-85
2023/12/11 06:18:10;;;;;;;18.42;2.42;;;;;;;8.58;100.00;99646.91;5007128;28;20201;-84
2023/12/11 06:20:36;;;;;;;19.20;2.30;;;;;;;8.61;100.00;99654.59;5024829;28;20088;-85
2023/12/11 06:23:01;;;;;;;12.15;1.90;;;;;;;8.61;100.00;99648.59;5022047;28;20071;-85
2023/12/11 06:25:27;;;;;;;16.33;2.80;;;;;;;8.61;100.00;99654.59;5027375;28;20021;-82
2023/12/11 06:27:52;;;;;;;18.60;2.65;;;;;;;8.60;100.00;99657.25;5022442;28;20480;-83
2023/12/11 06:30:18;;;;;;;13.82;2.10;;;;;;;8.55;100.00;99649.63;5017816;28;20026;-82
2023/12/11 06:32:43;;;;;;;13.52;2.05;;;;;;;8.54;100.00;99652.28;5019516;28;20358;-82
2023/12/11 06:35:08;;;;;;;10.98;2.03;;;;;;;8.52;100.00;99643.72;5029787;28;20043;-82
2023/12/11 06:37:34;;;;;;;13.02;2.42;;;;;;;8.50;100.00;99644.63;5027347;28;20056;-83
2023/12/11 06:39:59;;;;;;;13.68;2.30;;;;;;;8.49;100.00;99639.50;5023246;28;20056;-82
2023/12/11 06:42:25;;;;;;;16.73;2.70;;;;;;;8.47;100.00;99647.28;5027497;28;20033;-82
2023/12/11 06:44:50;;;;;;;10.77;2.22;;;;;;;8.47;100.00;99646.44;5022160;28;20128;-82
2023/12/11 06:47:15;;;;;;;15.48;3.00;;;;;;;8.46;100.00;99649.94;5023557;28;20025;-82
2023/12/11 06:49:44;;;;;;;12.60;2.38;;;;;;;8.46;100.00;99649.94;5021262;28;20475;-83
2023/12/11 06:52:09;;;;;;;16.13;2.60;;;;;;;8.45;100.00;99650.84;5024300;28;20025;-83
2023/12/11 06:54:34;;;;;;;12.23;2.47;;;;;;;8.46;100.00;99650.78;5025956;28;20109;-82
2023/12/11 06:57:00;;;;;;;13.88;2.58;;;;;;;8.51;100.00;99645.47;5022929;28;20040;-82
2023/12/11 06:59:25;;;;;;;19.17;2.60;;;;;;;8.50;100.00;99647.22;5026062;28;20021;-82
2023/12/11 07:01:50;;;;;;;13.20;2.67;;;;;;;8.48;100.00;99654.19;5022008;28;20026;-82
2023/12/11 07:04:16;;;;;;;18.77;2.67;;;;;;;8.47;100.00;99656.81;5018097;28;20482;-82
2023/12/11 07:06:41;;;;;;;12.32;2.30;;;;;;;8.48;100.00;99648.16;5028185;28;20410;-82
2023/12/11 07:09:07;;;;;;;15.27;2.42;;;;;;;8.50;100.00;99667.13;5025231;28;20032;-82
2023/12/11 07:11:33;;;;;;;14.30;2.42;;;;;;;8.49;100.00;99670.59;5027152;28;20025;-83
2023/12/11 07:13:58;;;;;;;19.60;2.90;;;;;;;8.51;100.00;99674.00;5018631;28;20032;-84
2023/12/11 07:16:24;;;;;;;19.95;2.20;;;;;;;8.52;100.00;99680.00;5022015;28;20151;-83
2023/12/11 07:18:49;;;;;;;13.48;1.98;;;;;;;8.48;100.00;99676.69;5012650;28;20058;-82
2023/12/11 07:21:14;;;;;;;12.05;2.03;;;;;;;8.47;100.00;99680.16;5011860;28;20033;-82
2023/12/11 07:23:40;;;;;;;16.10;2.05;;;;;;;8.49;100.00;99686.16;5017229;28;20026;-84
2023/12/11 07:26:09;;;;;;;12.18;2.47;;;;;;;8.48;100.00;99684.47;5021935;28;20079;-84
2023/12/11 07:28:38;;;;;;;13.00;2.05;;;;;;;8.47;100.00;99700.88;5021775;28;20144;-85
2023/12/11 07:31:05;;;;;;;13.07;1.98;;;;;;;8.47;100.00;99687.91;5013102;28;20036;-85
2023/12/11 07:33:31;;;;;;;14.50;2.10;;;;;;;8.47;100.00;99696.53;5017425;28;20125;-85
2023/12/11 07:35:56;;;;;;;10.30;1.60;;;;;;;8.45;100.00;99694.91;5020426;28;20589;-85
2023/12/11 07:38:21;;;;;;;12.48;2.20;;;;;;;8.44;100.00;99695.78;5012510;28;20041;-84
2023/12/11 07:40:47;;;;;;;20.08;2.25;;;;;;;8.41;100.00;99695.91;5013174;28;20034;-85
2023/12/11 07:43:12;;;;;;;14.35;1.70;;;;;;;8.40;100.00;99704.56;5004594;28;20275;-84
2023/12/11 07:45:37;;;;;;;15.93;2.00;;;;;;;8.40;100.00;99696.81;5021610;28;20086;-84
2023/12/11 07:48:04;;;;;;;11.00;1.80;;;;;;;8.38;100.00;99714.16;5018019;28;20022;-84
2023/12/11 07:50:29;;;;;;;13.52;2.50;;;;;;;8.39;100.00;99710.66;5023959;28;20033;-82
2023/12/11 07:52:54;;;;;;;11.63;1.92;;;;;;;8.40;100.00;99712.34;5009961;28;20034;-82
2023/12/11 07:55:19;;;;;;;16.50;2.25;;;;;;;8.44;100.00;99724.31;5012175;28;20037;-84
2023/12/11 07:57:45;;;;;;;9.43;1.73;;;;;;;8.41;100.00;99725.28;5014506;28;20476;-83
2023/12/11 08:00:11;;;;;;;10.73;1.70;;;;;;;8.44;100.00;99739.84;5020537;28;20511;-85
2023/12/11 08:02:37;;;;;;;10.93;1.27;;;;;;;8.48;100.00;99728.53;5017213;28;20025;-85
2023/12/11 08:05:03;;;;;;;14.23;2.03;;;;;;;8.50;100.00;99735.34;4999686;28;20116;-84
2023/12/11 08:07:28;;;;;;;11.93;1.98;;;;;;;8.48;100.00;99737.13;5000911;28;20021;-85
2023/12/11 08:09:53;;;;;;;11.75;2.35;;;;;;;8.50;100.00;99744.88;5009106;28;20109;-85
2023/12/11 08:12:19;;;;;;;10.90;1.60;;;;;;;8.56;100.00;99746.41;5009064;28;20029;-85
2023/12/11 08:14:44;;;;;;;14.93;1.95;;;;;;;8.57;100.00;99754.09;5019570;28;20033;-83
2023/12/11 08:17:10;;;;;;;11.60;1.48;;;;;;;8.57;100.00;99756.69;5021333;28;20032;-82
2023/12/11 08:19:36;;;;;;;12.52;1.60;;;;;;;8.57;100.00;99766.25;5021327;28;20128;-82
2023/12/11 08:22:01;;;;;;;11.90;2.05;;;;;;;8.53;100.00;99752.56;5021049;28;20022;-82
2023/12/11 08:24:27;;;;;;;12.02;1.98;;;;;;;8.51;100.00;99767.31;5018511;28;20410;-83
2023/12/11 08:26:52;;;;;;;9.80;1.70;;;;;;;8.50;100.00;99778.56;5024088;28;20032;-85
2023/12/11 08:29:18;;;;;;;12.75;1.88;;;;;;;8.52;100.00;99771.59;5024191;28;20025;-82
2023/12/11 08:31:43;;;;;;;10.23;1.45;;;;;;;8.51;100.00;99801.00;5026002;28;20144;-82
2023/12/11 08:34:09;;;;;;;8.68;1.52;;;;;;;8.50;100.00;99800.16;5029753;28;20032;-82
2023/12/11 08:36:34;;;;;;;10.60;1.33;;;;;;;8.48;100.00;99814.06;5018383;28;20524;-84
2023/12/11 08:39:00;;;;;;;14.65;1.75;;;;;;;8.44;100.00;99812.44;5022388;28;20025;-84
2023/12/11 08:41:25;;;;;;;10.77;1.30;;;;;;;8.43;100.00;99821.09;5027990;28;20108;-84
2023/12/11 08:43:50;;;;;;;10.43;1.67;;;;;;;8.41;100.00;99822.91;5020164;28;20030;-84
2023/12/11 08:46:16;;;;;;;6.90;1.30;;;;;;;8.42;100.00;99840.16;5012517;28;20038;-84
2023/12/11 08:48:43;;;;;;;9.38;1.50;;;;;;;8.43;100.00;99836.66;5016466;28;20033;-83
2023/12/11 08:51:09;;;;;;;10.10;1.35;;;;;;;8.45;100.00;99845.22;5017225;28;20088;-84
2023/12/11 08:53:34;;;;;;;12.68;1.50;;;;;;;8.47;100.00;99848.63;5016686;28;20384;-84
2023/12/11 08:55:59;;;;;;;9.18;1.60;;;;;;;8.48;100.00;99848.59;5017106;28;20065;-83
2023/12/11 08:58:25;;;;;;;12.02;1.58;;;;;;;8.51;100.00;99845.06;5020693;28;20040;-84
2023/12/11 09:00:50;;;;;;;10.60;1.25;;;;;;;8.52;100.00;99854.53;5016759;28;20033;-83
2023/12/11 09:03:16;;;;;;;7.43;1.63;;;;;;;8.54;100.00;99855.31;5018295;28;20034;-83
2023/12/11 09:05:41;;;;;;;7.10;1.33;;;;;;;8.56;100.00;99857.88;5020548;28;20177;-82
2023/12/11 09:08:07;;;;;;;9.55;1.30;;;;;;;8.58;100.00;99872.47;5012518;28;20431;-84
2023/12/11 09:10:34;;;;;;;11.82;1.35;;;;;;;8.64;100.00;99876.59;5019802;28;20493;-84
2023/12/11 09:13:00;;;;;;;8.52;1.38;;;;;;;8.62;100.00;99876.66;5016896;28;20213;-84
2023/12/11 09:15:25;;;;;;;5.18;0.95;;;;;;;8.64;100.00;99887.84;5025306;23;20409;-84
2023/12/11 09:17:50;;;;;;;6.70;1.15;;;;;;;8.68;100.00;99893.75;4996777;28;20056;-86
2023/12/11 09:20:16;;;;;;;8.65;1.30;;;;;;;8.70;100.00;99911.88;5006787;28;20531;-84
2023/12/11 09:22:41;;;;;;;4.43;1.10;;;;;;;8.73;100.00;99893.59;5005375;28;20022;-84
2023/12/11 09:25:07;;;;;;;7.20;1.65;;;;;;;8.77;100.00;99910.75;5005411;28;20492;-85
2023/12/11 09:27:33;;;;;;;5.38;1.25;;;;;;;8.79;100.00;99911.56;5009331;28;20030;-85
2023/12/11 09:29:59;;;;;;;4.88;1.10;;;;;;;8.82;100.00;99921.84;5006688;28;20172;-85
2023/12/11 09:32:24;;;;;;;8.70;1.20;;;;;;;8.82;100.00;99927.03;5000934;28;20018;-85
2023/12/11 09:34:51;;;;;;;6.45;1.00;;;;;;;8.84;100.00;99943.38;5010976;28;20489;-85
2023/12/11 09:37:19;;;;;;;6.80;1.00;;;;;;;8.87;100.00;99940.69;5001327;28;20033;-83
2023/12/11 09:39:46;;;;;;;7.78;1.25;;;;;;;8.91;100.00;99957.00;4993027;28;20068;-84
2023/12/11 09:42:13;;;;;;;7.97;1.40;;;;;;;8.92;100.00;99954.34;5000032;28;20014;-83
2023/12/11 09:44:40;;;;;;;7.05;1.20;;;;;;;8.93;100.00;99971.59;4999188;28;20030;-83
2023/12/11 09:47:14;;;;;;;6.05;1.00;;;;;;;8.98;100.00;99983.56;4994857;28;20477;-83
2023/12/11 09:49:39;;;;;;;9.90;1.40;;;;;;;8.96;100.00;99984.47;4999315;28;20019;-83
2023/12/11 09:52:05;;;;;;;5.82;1.23;;;;;;;8.98;100.00;99993.94;5003390;28;20030;-85
2023/12/11 09:54:30;;;;;;;7.30;1.00;;;;;;;8.93;100.00;100007.91;4997383;28;20100;-82
2023/12/11 09:56:57;;;;;;;7.15;1.20;;;;;;;8.91;100.00;100004.50;4997743;28;20045;-83
2023/12/11 09:59:25;;;;;;;5.80;1.05;;;;;;;8.85;100.00;100004.72;4998141;28;20041;-84
2023/12/11 10:01:50;;;;;;;8.23;1.10;;;;;;;8.79;100.00;100004.91;4990213;28;20064;-84
2023/12/11 10:04:16;;;;;;;5.53;1.50;;;;;;;8.77;100.00;100009.31;5001210;28;20061;-85
2023/12/11 10:06:41;;;;;;;6.15;1.20;;;;;;;8.73;100.00;100015.47;4989813;28;20417;-85
2023/12/11 10:09:06;;;;;;;7.40;0.95;;;;;;;8.73;100.00;100010.28;4996276;28;20420;-85
2023/12/11 10:11:33;;;;;;;6.07;1.05;;;;;;;8.68;100.00;100017.38;4999779;28;20062;-84
2023/12/11 10:14:25;;;;;;;11.88;1.85;;;;;;;8.69;100.00;100025.09;5006659;28;20080;-84
2023/12/11 10:16:51;;;;;;;6.72;1.40;;;;;;;8.61;100.00;100025.34;4994764;28;20073;-84
2023/12/11 10:19:16;;;;;;;7.00;1.40;;;;;;;8.56;100.00;100029.81;4991329;28;20485;-86
2023/12/11 10:21:42;;;;;;;8.90;1.30;;;;;;;8.51;100.00;100044.69;4994880;28;20060;-84
2023/12/11 10:24:13;;;;;;;5.30;1.10;;;;;;;8.46;100.00;100069.84;4998337;28;20477;-84
2023/12/11 10:26:45;;;;;;;4.80;1.05;;;;;;;8.38;100.00;100057.13;4979008;28;20054;-85
2023/12/11 10:29:27;;;;;;;5.07;0.95;;;;;;;8.30;100.00;100057.34;4990495;28;20034;-84
2023/12/11 10:32:00;;;;;;;2.75;0.80;;;;;;;8.26;100.00;100065.25;4992745;28;20026;-84
2023/12/11 10:34:55;;;;;;;4.60;0.70;;;;;;;8.20;100.00;100058.47;4990951;28;20195;-84
2023/12/11 10:37:29;;;;;;;3.15;0.60;;;;;;;8.16;100.00;100064.66;4994972;28;20038;-84
2023/12/11 10:39:55;;;;;;;3.05;0.73;;;;;;;8.11;100.00;100074.28;4989109;28;20030;-84
2023/12/11 10:42:21;;;;;;;2.25;0.60;;;;;;;8.04;100.00;100084.81;4994158;28;20029;-85
2023/12/11 10:44:46;;;;;;;4.40;0.70;;;;;;;7.99;100.00;100086.72;4997690;28;20034;-84
2023/12/11 10:47:12;;;;;;;2.35;0.70;;;;;;;7.94;100.00;100088.56;4996645;28;20030;-84
2023/12/11 10:49:39;;;;;;;2.72;0.80;;;;;;;7.89;100.00;100085.25;4987099;28;20021;-84
2023/12/11 10:52:04;;;;;;;2.35;0.70;;;;;;;7.83;100.00;100093.19;4997783;28;20061;-83
2023/12/11 10:54:30;;;;;;;3.25;0.73;;;;;;;7.80;100.00;100091.50;4994866;28;20029;-84
2023/12/11 10:56:59;;;;;;;1.67;0.70;;;;;;;7.78;100.00;100095.03;5001096;28;20057;-84
2023/12/11 10:59:27;;;;;;;2.78;0.73;;;;;;;7.75;100.00;100102.00;4995204;28;20057;-83
2023/12/11 11:01:54;;;;;;;2.60;0.73;;;;;;;7.73;100.00;100110.72;4995122;28;20032;-84
2023/12/11 11:04:21;;;;;;;3.00;0.70;;;;;;;7.73;100.00;100106.34;4997864;28;20041;-84
2023/12/11 11:07:14;;;;;;;2.20;0.70;;;;;;;7.70;100.00;100116.78;5000409;28;20030;-84
2023/12/11 11:10:10;;;;;;;1.08;0.60;;;;;;;7.72;100.00;100116.78;4997461;28;20057;-83
2023/12/11 11:13:05;;;;;;;3.20;0.90;;;;;;;7.75;100.00;100120.13;4996478;28;20108;-85
2023/12/11 11:15:30;;;;;;;1.23;0.60;;;;;;;7.72;100.00;100140.06;4999119;28;20050;-84
2023/12/11 11:18:07;;;;;;;4.95;0.80;;;;;;;7.71;100.00;100134.03;4998449;28;20057;-84
2023/12/11 11:20:40;;;;;;;3.17;0.70;;;;;;;7.73;100.00;100127.06;4996078;28;20034;-84
2023/12/11 11:23:15;;;;;;;3.13;0.98;;;;;;;7.72;100.00;100134.91;4998372;28;20100;-84